createdAt,value
2023-04-28T00:03:58.833Z,8.9
2023-04-28T00:18:47.827Z,8.8
2023-04-28T00:29:54.752Z,8.7
2023-04-28T00:34:17.341Z,8.7
2023-04-28T00:39:23.590Z,8.7
2023-04-28T00:44:53.172Z,8.6
2023-04-28T00:49:29.504Z,8.6
2023-04-28T01:04:58.729Z,8.5
2023-04-28T01:10:05.132Z,8.5
2023-04-28T01:20:18.690Z,8.4
2023-04-28T01:25:25.056Z,8.4
2023-04-28T01:30:51.551Z,8.3
2023-04-28T01:35:37.956Z,8.3
2023-04-28T01:40:44.275Z,8.2
2023-04-28T01:46:14.777Z,8.2
2023-04-28T01:50:57.165Z,8.2
2023-04-28T01:56:47.744Z,8.1
2023-04-28T02:01:10.057Z,8.1
2023-04-28T02:06:36.532Z,8.0
2023-04-28T02:17:13.337Z,7.9
2023-04-28T02:21:35.677Z,7.9
2023-04-28T02:27:26.174Z,7.8
2023-04-28T02:32:58.699Z,7.8
2023-04-28T02:37:14.935Z,7.7
2023-04-28T02:42:01.288Z,7.7
2023-04-28T02:47:07.769Z,7.7
2023-04-28T02:52:38.100Z,7.7
2023-04-28T02:57:40.461Z,7.7
2023-04-28T03:02:26.886Z,7.7
2023-04-28T03:08:11.269Z,7.7
2023-04-28T03:12:39.572Z,7.7
2023-04-28T03:17:46.005Z,7.7
2023-04-28T03:22:52.343Z,7.7
2023-04-28T03:27:48.707Z,7.7
2023-04-28T03:33:08.829Z,7.7
2023-04-28T03:38:15.220Z,7.7
2023-04-28T03:44:18.254Z,7.7
2023-04-28T03:48:28.439Z,7.7
2023-04-28T03:53:34.746Z,7.7
2023-04-28T03:58:41.189Z,7.7
2023-04-28T04:04:43.875Z,7.8
2023-04-28T04:08:43.928Z,7.8
2023-04-28T04:14:01.561Z,7.8
2023-04-28T04:19:08.157Z,7.8
2023-04-28T04:24:34.816Z,7.8
2023-04-28T04:29:21.136Z,7.8
2023-04-28T04:49:46.634Z,7.9
2023-04-28T04:54:53.042Z,7.9
2023-04-28T04:59:59.564Z,7.9
2023-04-28T05:05:19.703Z,8.0
2023-04-28T05:10:12.304Z,8.0
2023-04-28T05:15:18.812Z,8.0
2023-04-28T05:20:25.128Z,8.0
2023-04-28T05:25:21.429Z,8.1
2023-04-28T05:31:02.068Z,8.1
2023-04-28T05:35:44.367Z,8.2
2023-04-28T05:40:50.842Z,8.2
2023-04-28T05:45:57.268Z,8.3
2023-04-28T05:51:03.646Z,8.4
2023-04-28T05:56:10.008Z,8.5
2023-04-28T06:01:16.386Z,8.6
2023-04-28T06:06:22.841Z,8.7
2023-04-28T06:11:49.206Z,8.7
2023-04-28T06:16:35.637Z,8.9
2023-04-28T06:21:41.968Z,9.0
2023-04-28T06:26:48.313Z,9.0
2023-04-28T06:31:54.689Z,9.1
2023-04-28T06:37:21.131Z,9.2
2023-04-28T06:42:07.465Z,9.4
2023-04-28T06:47:13.846Z,9.5
2023-04-28T06:52:40.429Z,9.5
2023-04-28T06:57:16.719Z,9.7
2023-04-28T07:02:33.263Z,9.8
2023-04-28T07:07:39.691Z,9.9
2023-04-28T07:13:10.347Z,10.1
2023-04-28T07:18:12.886Z,10.3
2023-04-28T07:22:59.145Z,10.3
2023-04-28T07:28:49.622Z,10.4
2023-04-28T07:38:18.264Z,10.5
2023-04-28T07:43:24.734Z,10.5
2023-04-28T07:48:45.146Z,10.6
2023-04-28T07:53:37.465Z,10.6
2023-04-28T07:58:33.826Z,10.6
2023-04-28T08:03:40.309Z,10.6
2023-04-28T08:08:56.832Z,10.7
2023-04-28T08:14:03.540Z,10.7
2023-04-28T08:24:06.200Z,10.8
2023-04-28T08:29:22.565Z,10.9
2023-04-28T08:34:28.943Z,11.0
2023-04-28T08:39:35.348Z,11.0
2023-04-28T08:44:41.720Z,11.0
2023-04-28T08:49:48.100Z,11.1
2023-04-28T08:54:54.523Z,11.1
2023-04-28T09:00:00.875Z,11.2
2023-04-28T09:04:57.432Z,11.2
2023-04-28T09:10:41.338Z,11.3
2023-04-28T09:15:13.623Z,11.4
2023-04-28T09:20:30.041Z,11.6
2023-04-28T09:25:36.389Z,11.9
2023-04-28T09:31:06.844Z,12.1
2023-04-28T09:36:09.199Z,12.3
2023-04-28T09:40:55.560Z,12.5
2023-04-28T09:46:02.020Z,12.7
2023-04-28T09:51:07.392Z,12.9
2023-04-28T09:56:14.693Z,13.1
2023-04-28T10:01:21.117Z,13.3
2023-04-28T10:06:26.488Z,13.7
2023-04-28T10:11:34.056Z,14.2
2023-04-28T10:17:04.598Z,14.8
2023-04-28T10:21:49.288Z,15.4
2023-04-28T10:26:53.436Z,16.0
2023-04-28T10:31:59.807Z,16.4
2023-04-28T10:37:06.245Z,16.8
2023-04-28T10:42:12.573Z,17.2
2023-04-28T10:47:18.960Z,17.5
2023-04-28T10:52:25.472Z,17.9
2023-04-28T10:57:21.933Z,18.4
2023-04-28T11:02:39.674Z,18.8
2023-04-28T11:07:44.763Z,19.1
2023-04-28T11:12:51.112Z,19.4
2023-04-28T11:18:21.569Z,19.7
2023-04-28T11:23:03.934Z,20.0
2023-04-28T11:28:10.298Z,20.3
2023-04-28T11:33:06.844Z,20.5
2023-04-28T11:43:53.881Z,20.7
2023-04-28T11:48:36.199Z,20.7
2023-04-28T11:53:42.627Z,20.6
2023-04-28T11:58:48.961Z,20.4
2023-04-28T12:03:55.572Z,20.2
2023-04-28T12:09:01.783Z,20.0
2023-04-28T12:14:08.172Z,19.7
2023-04-28T12:19:14.563Z,19.5
2023-04-28T12:24:21.149Z,19.3
2023-04-28T12:29:27.491Z,19.1
2023-04-28T12:34:33.877Z,18.9
2023-04-28T12:39:40.532Z,18.7
2023-04-28T12:44:46.671Z,18.6
2023-04-28T12:49:53.068Z,18.4
2023-04-28T12:54:59.453Z,18.3
2023-04-28T13:00:29.860Z,18.1
2023-04-28T13:05:12.311Z,18.0
2023-04-28T13:10:18.596Z,17.9
2023-04-28T13:15:24.999Z,17.7
2023-04-28T13:20:55.439Z,17.6
2023-04-28T13:26:01.840Z,17.6
2023-04-28T13:31:28.262Z,17.4
2023-04-28T13:35:50.610Z,17.4
2023-04-28T13:40:58.141Z,17.3
2023-04-28T13:46:04.637Z,17.2
2023-04-28T13:51:10.886Z,17.1
2023-04-28T13:56:17.275Z,17.0
2023-04-28T14:01:23.730Z,17.0
2023-04-28T14:06:30.132Z,16.9
2023-04-28T14:11:36.441Z,17.0
2023-04-28T14:16:42.984Z,17.1
2023-04-28T14:21:49.391Z,17.1
2023-04-28T14:26:55.776Z,17.2
2023-04-28T14:38:46.338Z,17.2
2023-04-28T14:43:52.870Z,17.3
2023-04-28T14:49:19.331Z,17.3
2023-04-28T14:54:25.737Z,17.3
2023-04-28T14:59:36.119Z,17.3
2023-04-28T15:04:18.723Z,17.2
2023-04-28T15:09:24.805Z,17.2
2023-04-28T15:14:31.203Z,17.1
2023-04-28T15:19:41.185Z,17.0
2023-04-28T15:28:34.778Z,16.8
2023-04-28T15:33:42.200Z,16.8
2023-04-28T15:37:30.390Z,16.8
2023-04-28T15:42:56.833Z,16.7
2023-04-28T15:47:43.338Z,16.6
2023-04-28T15:52:50.194Z,16.6
2023-04-28T15:57:56.078Z,16.5
2023-04-28T16:03:02.544Z,16.5
2023-04-28T16:08:52.951Z,16.4
2023-04-28T16:13:15.220Z,16.4
2023-04-28T16:23:18.193Z,16.2
2023-04-28T16:28:34.626Z,16.2
2023-04-28T16:33:40.972Z,16.1
2023-04-28T16:38:47.362Z,16.0
2023-04-28T16:43:53.768Z,16.0
2023-04-28T16:49:00.165Z,16.0
2023-04-28T16:54:06.524Z,16.0
2023-04-28T16:59:12.926Z,15.9
2023-04-28T17:04:19.544Z,15.9
2023-04-28T17:09:25.787Z,15.8
2023-04-28T17:14:22.289Z,15.8
2023-04-28T17:19:38.553Z,15.7
2023-04-28T17:25:51.081Z,15.6
2023-04-28T17:30:35.436Z,15.6
2023-04-28T17:35:42.101Z,15.5
2023-04-28T17:40:04.494Z,15.4
2023-04-28T17:45:30.932Z,15.4
2023-04-28T17:50:37.321Z,15.3
2023-04-28T17:55:23.648Z,15.2
2023-04-28T18:00:30.023Z,15.2
2023-04-28T18:16:33.330Z,15.0
2023-04-28T18:20:55.589Z,14.9
2023-04-28T18:26:40.049Z,14.8
2023-04-28T18:31:08.360Z,14.8
2023-04-28T18:36:14.799Z,14.7
2023-04-28T18:41:41.205Z,14.7
2023-04-28T18:46:27.718Z,14.6
2023-04-28T18:51:34.002Z,14.6
2023-04-28T18:56:40.503Z,14.5
2023-04-28T19:01:46.949Z,14.4
2023-04-28T19:06:53.274Z,14.4
2023-04-28T19:11:59.676Z,14.3
2023-04-28T19:17:06.179Z,14.3
2023-04-28T19:22:32.503Z,14.3
2023-04-28T19:27:18.851Z,14.2
2023-04-28T19:32:26.560Z,14.2
2023-04-28T19:37:32.854Z,14.1
2023-04-28T19:42:39.241Z,14.1
2023-04-28T19:47:45.731Z,14.0
2023-04-28T19:52:52.024Z,14.0
2023-04-28T19:57:58.391Z,14.0
2023-04-28T20:03:04.958Z,13.9
2023-04-28T20:08:50.396Z,13.9
2023-04-28T20:14:10.813Z,13.8
2023-04-28T20:18:24.110Z,13.8
2023-04-28T20:24:14.557Z,13.8
2023-04-28T20:29:00.906Z,13.7
2023-04-28T20:33:33.273Z,13.7
2023-04-28T20:38:49.722Z,13.6
2023-04-28T20:43:56.124Z,13.6
2023-04-28T20:49:02.528Z,13.5
2023-04-28T20:53:58.883Z,13.5
2023-04-28T20:59:15.268Z,13.4
2023-04-28T21:04:21.747Z,13.4
2023-04-28T21:09:28.097Z,13.3
2023-04-28T21:14:34.482Z,13.3
2023-04-28T21:19:40.943Z,13.3
2023-04-28T21:25:43.412Z,13.2
2023-04-28T21:29:53.678Z,13.2
2023-04-28T21:35:00.208Z,13.1
2023-04-28T21:40:08.102Z,13.1
2023-04-28T21:51:15.230Z,13.0
2023-04-28T21:56:02.552Z,13.0
2023-04-28T22:01:10.181Z,13.0
2023-04-28T22:06:16.596Z,13.0
2023-04-28T22:11:22.984Z,12.9
2023-04-28T22:16:32.469Z,12.9
2023-04-28T22:21:38.874Z,12.8
2023-04-28T22:26:45.250Z,12.8
2023-04-28T22:31:51.660Z,12.7
2023-04-28T22:37:18.195Z,12.7
2023-04-28T22:42:04.642Z,12.7
2023-04-28T22:47:31.134Z,12.6
2023-04-28T22:52:17.373Z,12.6
2023-04-28T22:57:47.405Z,12.5
2023-04-28T23:02:57.895Z,12.5
2023-04-28T23:07:40.160Z,12.5
2023-04-28T23:12:46.721Z,12.4
2023-04-28T23:18:13.280Z,12.4
2023-04-28T23:22:59.596Z,12.3
2023-04-28T23:28:05.969Z,12.3
2023-04-28T23:33:12.389Z,12.2
2023-04-28T23:38:18.820Z,12.2
2023-04-28T23:43:25.354Z,12.1
2023-04-28T23:48:33.332Z,12.0
2023-04-28T23:53:39.892Z,12.0
2023-04-28T23:58:46.356Z,11.9
